Time;durP1;ratioP1;P1;durP2;ratioP2;P2;SDS_P1;SDS_P2;PMS_P1;PMS_P2;Temp;Humidity;BMP_temperature;BMP_pressure;BME280_temperature;BME280_humidity;BME280_pressure;Samples;Min_cycle;Max_cycle;Signal;HPM_P1;HPM_P2
2022/02/21 00:01:22;;;;;;;25.80;11.10;;;;;;;0.83;100.00;99343.80;1785220;80;21025;-70
2022/02/21 00:03:49;;;;;;;23.27;10.03;;;;;;;0.83;100.00;99334.97;1749745;80;21640;-69
2022/02/21 00:06:18;;;;;;;24.10;10.50;;;;;;;0.81;100.00;99337.75;1791318;80;21034;-70
2022/02/21 00:08:46;;;;;;;24.27;11.13;;;;;;;0.80;100.00;99340.08;1778054;80;21577;-70
2022/02/21 00:11:20;;;;;;;26.17;11.73;;;;;;;0.79;100.00;99341.03;1784632;80;21104;-70
2022/02/21 00:13:48;;;;;;;25.47;11.17;;;;;;;0.75;100.00;99329.80;1783810;80;21593;-69
2022/02/21 00:16:15;;;;;;;27.53;11.43;;;;;;;0.71;100.00;99334.19;1782631;80;21025;-70
2022/02/21 00:18:43;;;;;;;22.90;9.90;;;;;;;0.67;100.00;99334.05;1755281;80;21518;-69
2022/02/21 00:21:10;;;;;;;24.90;10.07;;;;;;;0.62;100.00;99331.78;1788520;80;21022;-69
2022/02/21 00:23:38;;;;;;;18.07;8.90;;;;;;;0.58;100.00;99324.16;1782649;80;21557;-70
2022/02/21 00:26:06;;;;;;;20.63;9.80;;;;;;;0.54;100.00;99323.57;1787113;80;21081;-71
2022/02/21 00:28:33;;;;;;;16.80;7.63;;;;;;;0.49;100.00;99322.60;1788136;80;21041;-71
2022/02/21 00:31:02;;;;;;;17.10;8.30;;;;;;;0.44;100.00;99312.81;1782330;80;21029;-71
2022/02/21 00:33:33;;;;;;;17.47;7.50;;;;;;;0.41;100.00;99321.06;1758086;80;21014;-70
2022/02/21 00:36:01;;;;;;;17.30;7.43;;;;;;;0.36;100.00;99313.45;1783262;80;21041;-69
2022/02/21 00:38:29;;;;;;;14.60;6.93;;;;;;;0.33;100.00;99307.53;1782251;80;21026;-70
2022/02/21 00:41:03;;;;;;;18.37;7.67;;;;;;;0.31;100.00;99309.47;1787935;80;21091;-70
2022/02/21 00:43:31;;;;;;;15.77;7.77;;;;;;;0.29;100.00;99308.75;1780740;80;21064;-70
2022/02/21 00:45:58;;;;;;;15.80;7.40;;;;;;;0.30;100.00;99308.64;1755383;80;20979;-71
2022/02/21 00:48:25;;;;;;;15.93;7.17;;;;;;;0.30;100.00;99311.30;1757642;80;21093;-71
2022/02/21 00:50:52;;;;;;;18.43;8.30;;;;;;;0.32;100.00;99317.33;1789208;80;21072;-70
2022/02/21 00:53:20;;;;;;;17.30;8.50;;;;;;;0.33;100.00;99310.19;1754353;80;21077;-70
2022/02/21 00:55:48;;;;;;;19.23;8.53;;;;;;;0.33;100.00;99308.37;1789004;80;21021;-69
2022/02/21 00:58:16;;;;;;;19.70;9.00;;;;;;;0.34;100.00;99305.24;1780904;80;21022;-70
2022/02/21 01:00:43;;;;;;;18.63;9.60;;;;;;;0.33;100.00;99302.21;1783375;80;21053;-69
2022/02/21 01:03:09;;;;;;;16.97;8.00;;;;;;;0.32;100.00;99300.51;1757739;80;21529;-70
2022/02/21 01:05:40;;;;;;;18.87;9.03;;;;;;;0.28;100.00;99297.25;1734857;80;21080;-70
2022/02/21 01:08:08;;;;;;;19.87;9.27;;;;;;;0.26;100.00;99298.36;1790983;80;21521;-70
2022/02/21 01:10:37;;;;;;;21.57;9.33;;;;;;;0.24;100.00;99308.28;1787158;80;21120;-71
2022/02/21 01:13:05;;;;;;;19.70;9.83;;;;;;;0.21;100.00;99304.03;1782164;80;21011;-68
2022/02/21 01:15:32;;;;;;;20.57;10.37;;;;;;;0.17;100.00;99294.13;1758686;80;21038;-69
2022/02/21 01:17:59;;;;;;;18.90;9.47;;;;;;;0.13;100.00;99295.36;1757625;80;21530;-70
2022/02/21 01:20:27;;;;;;;21.27;10.17;;;;;;;0.10;100.00;99289.44;1756909;80;21057;-70
2022/02/21 01:22:54;;;;;;;17.20;8.40;;;;;;;0.06;100.00;99291.50;1787207;80;21053;-70
2022/02/21 01:25:21;;;;;;;19.97;9.03;;;;;;;0.04;100.00;99284.63;1784384;80;21033;-69
2022/02/21 01:27:48;;;;;;;18.27;8.60;;;;;;;0.04;100.00;99276.16;1785104;80;20994;-71
2022/02/21 01:30:15;;;;;;;19.10;8.80;;;;;;;0.04;100.00;99276.66;1785117;80;21033;-70
2022/02/21 01:32:42;;;;;;;18.70;9.30;;;;;;;0.02;100.00;99273.24;1753343;80;21022;-70
2022/02/21 01:35:11;;;;;;;19.57;9.30;;;;;;;0.00;100.00;99268.08;1779941;80;21582;-70
2022/02/21 01:37:38;;;;;;;19.40;9.70;;;;;;;-0.04;100.00;99263.46;1753749;80;21589;-71
2022/02/21 01:40:10;;;;;;;19.07;8.97;;;;;;;-0.08;100.00;99265.17;1779913;80;21033;-70
2022/02/21 01:42:38;;;;;;;18.85;9.33;;;;;;;-0.11;100.00;99260.94;1780981;79;21002;-71
2022/02/21 01:45:06;;;;;;;18.53;8.93;;;;;;;-0.11;100.00;99255.61;1786144;80;20994;-69
2022/02/21 01:47:34;;;;;;;17.90;8.87;;;;;;;-0.11;100.00;99250.30;1785871;80;21510;-70
2022/02/21 01:50:01;;;;;;;19.17;8.70;;;;;;;-0.11;100.00;99243.66;1782467;80;20982;-71
2022/02/21 01:52:29;;;;;;;17.77;8.70;;;;;;;-0.11;100.00;99238.84;1782333;80;21057;-70
2022/02/21 01:54:56;;;;;;;18.57;8.73;;;;;;;-0.08;100.00;99231.95;1784649;80;21037;-70
2022/02/21 01:57:23;;;;;;;20.20;8.47;;;;;;;-0.07;100.00;99237.16;1783456;80;20974;-70
2022/02/21 01:59:50;;;;;;;15.97;7.93;;;;;;;-0.07;100.00;99237.61;1785932;80;20971;-69
2022/02/21 02:02:17;;;;;;;17.93;8.37;;;;;;;-0.08;100.00;99242.59;1786803;79;21561;-70
2022/02/21 02:04:44;;;;;;;18.63;8.87;;;;;;;-0.09;100.00;99243.54;1758145;80;21101;-70
2022/02/21 02:07:13;;;;;;;19.30;8.53;;;;;;;-0.11;100.00;99243.66;1781123;80;21026;-69
2022/02/21 02:09:42;;;;;;;20.47;8.67;;;;;;;-0.10;100.00;99246.69;1781509;80;21517;-70
2022/02/21 02:12:10;;;;;;;20.10;8.97;;;;;;;-0.10;100.00;99241.38;1755536;80;20990;-70
2022/02/21 02:14:39;;;;;;;19.47;9.20;;;;;;;-0.10;100.00;99238.72;1756773;80;21038;-70
2022/02/21 02:17:14;;;;;;;22.23;10.23;;;;;;;-0.10;100.00;99240.54;1783168;80;21546;-70
2022/02/21 02:19:44;;;;;;;19.53;8.83;;;;;;;-0.13;100.00;99243.43;1779090;80;21046;-70
2022/02/21 02:22:20;;;;;;;18.60;9.03;;;;;;;-0.16;100.00;99239.69;1785240;80;21561;-69
2022/02/21 02:24:49;;;;;;;20.70;8.70;;;;;;;-0.21;100.00;99239.58;1748776;80;21006;-69
2022/02/21 02:27:16;;;;;;;22.90;9.03;;;;;;;-0.23;100.00;99239.32;1750484;81;21009;-71
2022/02/21 02:29:46;;;;;;;18.77;8.57;;;;;;;-0.27;100.00;99244.52;1751564;81;21025;-69
2022/02/21 02:32:13;;;;;;;19.40;9.07;;;;;;;-0.26;100.00;99250.21;1753938;80;21017;-70
2022/02/21 02:34:44;;;;;;;19.30;8.53;;;;;;;-0.26;100.00;99251.05;1774892;80;21553;-70
2022/02/21 02:37:11;;;;;;;20.20;9.37;;;;;;;-0.23;100.00;99240.19;1752128;81;21025;-69
2022/02/21 02:39:38;;;;;;;19.73;9.03;;;;;;;-0.23;100.00;99233.55;1776239;80;21583;-69
2022/02/21 02:42:07;;;;;;;20.93;8.90;;;;;;;-0.22;100.00;99231.72;1751871;81;21033;-72
2022/02/21 02:44:34;;;;;;;20.27;9.40;;;;;;;-0.21;100.00;99234.27;1752289;81;21065;-69
2022/02/21 02:47:11;;;;;;;22.07;9.27;;;;;;;-0.20;100.00;99233.28;1778935;80;21088;-71
2022/02/21 02:49:38;;;;;;;22.90;11.83;;;;;;;-0.17;100.00;99224.23;1700449;83;21030;-70
2022/02/21 02:52:06;;;;;;;25.87;12.50;;;;;;;-0.16;100.00;99218.42;1699988;83;21034;-70
2022/02/21 02:54:33;;;;;;;35.97;19.07;;;;;;;-0.16;100.00;99219.75;1701551;83;21073;-71
2022/02/21 02:57:00;;;;;;;31.50;16.43;;;;;;;-0.18;100.00;99223.86;1699008;83;21030;-69
2022/02/21 02:59:27;;;;;;;33.57;18.50;;;;;;;-0.19;100.00;99234.14;1694720;83;21503;-70
2022/02/21 03:01:54;;;;;;;33.13;18.90;;;;;;;-0.20;100.00;99230.63;1695561;83;21105;-71
2022/02/21 03:04:21;;;;;;;34.93;18.90;;;;;;;-0.22;100.00;99235.22;1700119;83;21058;-70
2022/02/21 03:06:48;;;;;;;32.33;18.70;;;;;;;-0.24;100.00;99237.64;1704937;84;21031;-69
2022/02/21 03:09:15;;;;;;;34.87;17.27;;;;;;;-0.27;100.00;99233.41;1697079;83;21062;-70
2022/02/21 03:11:42;;;;;;;33.50;16.67;;;;;;;-0.31;100.00;99223.16;1673420;84;21041;-71
2022/02/21 03:14:10;;;;;;;28.53;14.83;;;;;;;-0.34;100.00;99220.25;1702609;83;21082;-71
2022/02/21 03:16:37;;;;;;;27.17;14.00;;;;;;;-0.33;100.00;99227.27;1698169;83;21098;-70
2022/02/21 03:19:05;;;;;;;25.50;13.60;;;;;;;-0.29;100.00;99227.87;1670823;83;21121;-70
2022/02/21 03:21:32;;;;;;;30.10;12.77;;;;;;;-0.25;100.00;99220.88;1711630;83;21573;-70
2022/02/21 03:23:59;;;;;;;24.13;11.87;;;;;;;-0.17;100.00;99220.73;1715916;82;21086;-70
2022/02/21 03:26:26;;;;;;;22.23;11.07;;;;;;;-0.11;100.00;99212.26;1688344;83;21094;-70
2022/02/21 03:28:53;;;;;;;22.23;10.47;;;;;;;-0.06;100.00;99217.56;1689824;83;21536;-70
2022/02/21 03:31:20;;;;;;;19.33;9.90;;;;;;;-0.03;100.00;99213.34;1705774;83;21115;-70
2022/02/21 03:33:47;;;;;;;21.00;10.67;;;;;;;0.04;100.00;99210.20;1709177;83;21044;-70
2022/02/21 03:36:14;;;;;;;22.13;9.90;;;;;;;0.08;100.00;99204.98;1712675;82;21019;-69
2022/02/21 03:38:43;;;;;;;21.17;9.73;;;;;;;0.15;100.00;99204.34;1696663;83;21021;-71
2022/02/21 03:41:10;;;;;;;20.10;9.87;;;;;;;0.20;100.00;99197.34;1689454;83;21022;-69
2022/02/21 03:43:37;;;;;;;21.33;9.73;;;;;;;0.26;100.00;99205.29;1690261;83;21061;-70
2022/02/21 03:46:05;;;;;;;23.10;10.17;;;;;;;0.31;100.00;99218.56;1692862;83;21055;-70
2022/02/21 03:48:32;;;;;;;21.37;9.70;;;;;;;0.37;100.00;99218.53;1712516;82;21133;-71
2022/02/21 03:50:59;;;;;;;22.17;9.77;;;;;;;0.40;100.00;99216.97;1669845;83;21070;-70
2022/02/21 03:53:26;;;;;;;23.43;10.47;;;;;;;0.42;100.00;99215.02;1742758;80;21042;-70
2022/02/21 03:55:55;;;;;;;22.73;10.73;;;;;;;0.41;100.00;99212.02;1729629;80;21136;-70
2022/02/21 03:58:22;;;;;;;24.53;11.03;;;;;;;0.41;100.00;99215.14;1781132;80;21510;-70
2022/02/21 04:00:49;;;;;;;21.23;10.50;;;;;;;0.41;100.00;99225.31;1780357;80;21010;-69
2022/02/21 04:03:16;;;;;;;23.10;10.83;;;;;;;0.45;100.00;99232.56;1781777;80;20983;-70
2022/02/21 04:05:43;;;;;;;21.37;9.77;;;;;;;0.43;100.00;99245.14;1782951;80;21042;-71
2022/02/21 04:08:10;;;;;;;21.00;10.03;;;;;;;0.43;100.00;99244.65;1754583;80;20966;-70
2022/02/21 04:10:37;;;;;;;21.60;10.13;;;;;;;0.42;100.00;99241.61;1756247;80;21019;-71
2022/02/21 04:13:04;;;;;;;22.87;10.27;;;;;;;0.42;100.00;99238.13;1757024;80;21049;-70
2022/02/21 04:15:32;;;;;;;22.87;10.30;;;;;;;0.41;100.00;99247.05;1788774;80;21127;-70
2022/02/21 04:17:59;;;;;;;25.17;11.33;;;;;;;0.38;100.00;99243.68;1782510;80;21089;-70
2022/02/21 04:20:27;;;;;;;23.80;11.30;;;;;;;0.37;100.00;99246.00;1782779;80;21029;-70
2022/02/21 04:22:55;;;;;;;21.27;10.50;;;;;;;0.38;100.00;99246.84;1785005;80;21486;-70
2022/02/21 04:25:22;;;;;;;25.77;10.50;;;;;;;0.37;100.00;99239.81;1782333;80;21561;-69
2022/02/21 04:27:53;;;;;;;22.83;10.87;;;;;;;0.38;100.00;99250.33;1755222;80;21510;-70
2022/02/21 04:30:23;;;;;;;23.40;10.63;;;;;;;0.38;100.00;99246.84;1785103;80;21027;-70
2022/02/21 04:32:50;;;;;;;22.50;10.70;;;;;;;0.35;100.00;99249.28;1785171;80;21510;-69
2022/02/21 04:35:19;;;;;;;23.90;11.00;;;;;;;0.35;100.00;99247.95;1754237;80;21461;-71
2022/02/21 04:37:46;;;;;;;21.80;10.37;;;;;;;0.36;100.00;99252.28;1782658;80;20970;-70
2022/02/21 04:40:19;;;;;;;20.97;10.37;;;;;;;0.35;100.00;99242.62;1788377;79;21005;-70
2022/02/21 04:42:48;;;;;;;;;;;;;;;0.34;100.00;99243.59;1789259;80;21065;-71
2022/02/21 04:45:15;;;;;;;22.57;10.37;;;;;;;0.33;100.00;99240.55;1789037;80;20252;-70
2022/02/21 04:47:42;;;;;;;24.93;11.27;;;;;;;0.31;100.00;99245.65;1782404;80;21021;-71
2022/02/21 04:50:10;;;;;;;21.43;10.53;;;;;;;0.30;100.00;99250.59;1789391;80;21025;-68
2022/02/21 04:52:37;;;;;;;23.87;11.17;;;;;;;0.28;100.00;99256.53;1785374;80;21022;-71
2022/02/21 04:55:06;;;;;;;25.00;11.23;;;;;;;0.27;100.00;99252.20;1783703;80;21032;-70
2022/02/21 04:57:33;;;;;;;21.90;11.00;;;;;;;0.24;100.00;99254.60;1786426;80;20993;-70
2022/02/21 05:00:10;;;;;;;21.07;9.97;;;;;;;0.23;100.00;99264.03;1785927;80;21628;-70
2022/02/21 05:02:37;;;;;;;19.60;10.37;;;;;;;0.20;100.00;99259.82;1758109;80;21064;-71
2022/02/21 05:05:07;;;;;;;23.10;11.17;;;;;;;0.20;100.00;99265.62;1782794;80;21018;-71
2022/02/21 05:07:34;;;;;;;22.80;11.30;;;;;;;0.16;100.00;99261.02;1760055;80;21166;-69
2022/02/21 05:10:01;;;;;;;22.93;11.70;;;;;;;0.12;100.00;99258.25;1756677;80;21069;-72
2022/02/21 05:12:29;;;;;;;24.27;11.57;;;;;;;0.07;100.00;99253.33;1757701;80;21029;-72
2022/02/21 05:14:56;;;;;;;22.23;10.40;;;;;;;0.06;100.00;99256.94;1785828;80;21022;-74
2022/02/21 05:17:23;;;;;;;23.27;11.07;;;;;;;0.04;100.00;99259.38;1790154;80;21010;-72
2022/02/21 05:19:50;;;;;;;24.43;11.10;;;;;;;0.02;100.00;99244.00;1788656;79;21017;-72
2022/02/21 05:22:18;;;;;;;25.43;14.13;;;;;;;0.01;100.00;99243.66;1755688;80;21045;-72
2022/02/21 05:24:45;;;;;;;24.83;12.67;;;;;;;-0.03;100.00;99237.75;1783571;80;21120;-72
2022/02/21 05:27:12;;;;;;;24.03;11.83;;;;;;;-0.06;100.00;99228.69;1756570;80;21010;-74
2022/02/21 05:29:39;;;;;;;23.50;11.37;;;;;;;-0.11;100.00;99229.04;1782742;80;21596;-75
2022/02/21 05:32:08;;;;;;;24.27;11.23;;;;;;;-0.14;100.00;99224.00;1754338;80;21066;-71
2022/02/21 05:34:38;;;;;;;23.30;11.00;;;;;;;-0.15;100.00;99223.63;1755980;80;22235;-71
2022/02/21 05:37:05;;;;;;;22.00;11.23;;;;;;;-0.17;100.00;99218.92;1787208;80;21009;-72
2022/02/21 05:39:32;;;;;;;25.97;10.63;;;;;;;-0.16;100.00;99213.11;1757588;80;21029;-70
2022/02/21 05:41:59;;;;;;;22.87;11.27;;;;;;;-0.16;100.00;99216.63;1755451;80;20991;-71
2022/02/21 05:44:26;;;;;;;21.97;10.80;;;;;;;-0.17;100.00;99212.77;1755375;80;21054;-74
2022/02/21 05:46:53;;;;;;;22.23;12.13;;;;;;;-0.12;100.00;99206.60;1789995;80;21101;-76
2022/02/21 05:49:20;;;;;;;24.77;12.00;;;;;;;-0.09;100.00;99203.21;1786880;80;20994;-74
2022/02/21 05:51:47;;;;;;;23.07;11.63;;;;;;;-0.04;100.00;99187.71;1726828;80;21077;-74
2022/02/21 05:54:14;;;;;;;23.83;11.60;;;;;;;0.01;100.00;99184.69;1785655;80;21009;-72
2022/02/21 05:56:41;;;;;;;25.47;13.17;;;;;;;0.09;100.00;99191.57;1786542;80;20998;-73
2022/02/21 05:59:09;;;;;;;25.10;12.83;;;;;;;0.18;100.00;99184.16;1757044;80;20998;-74
2022/02/21 06:01:36;;;;;;;27.20;12.67;;;;;;;0.30;100.00;99167.70;1783351;80;21127;-73
2022/02/21 06:04:03;;;;;;;23.17;12.23;;;;;;;0.39;100.00;99166.09;1755471;80;21022;-74
2022/02/21 06:06:33;;;;;;;25.77;12.93;;;;;;;0.46;100.00;99163.28;1784246;80;21081;-73
2022/02/21 06:08:59;;;;;;;21.97;11.77;;;;;;;0.51;100.00;99165.07;1756211;80;21527;-75
2022/02/21 06:11:26;;;;;;;24.67;12.27;;;;;;;0.61;100.00;99162.47;1742814;80;21038;-74
2022/02/21 06:13:54;;;;;;;24.47;12.60;;;;;;;0.72;100.00;99159.73;1767858;80;21159;-72
2022/02/21 06:16:21;;;;;;;23.63;12.13;;;;;;;0.84;100.00;99154.36;1739014;80;21566;-75
2022/02/21 06:18:48;;;;;;;26.63;11.53;;;;;;;0.91;100.00;99152.86;1758365;80;21565;-73
2022/02/21 06:21:16;;;;;;;22.63;11.23;;;;;;;0.98;100.00;99142.05;1746916;80;21022;-73
2022/02/21 06:23:44;;;;;;;22.73;11.70;;;;;;;1.09;100.00;99139.28;1755320;81;21198;-73
2022/02/21 06:26:11;;;;;;;22.17;11.47;;;;;;;1.18;100.00;99140.81;1747008;81;21066;-73
2022/02/21 06:28:38;;;;;;;22.90;11.73;;;;;;;1.25;100.00;99145.45;1738093;80;21002;-76
2022/02/21 06:31:09;;;;;;;23.53;11.73;;;;;;;1.36;100.00;99139.19;1762029;80;20975;-73
2022/02/21 06:33:38;;;;;;;21.87;11.23;;;;;;;1.48;100.00;99143.44;1772124;80;21161;-73
2022/02/21 06:36:05;;;;;;;23.80;11.53;;;;;;;1.62;100.00;99136.90;1713909;81;22065;-74
2022/02/21 06:38:32;;;;;;;23.43;11.73;;;;;;;1.74;100.00;99140.31;1723157;80;20990;-74
2022/02/21 06:40:59;;;;;;;22.93;11.33;;;;;;;1.86;100.00;99143.21;1783911;79;20966;-72
2022/02/21 06:43:27;;;;;;;22.47;11.57;;;;;;;2.03;100.00;99140.84;1785825;80;21010;-74
2022/02/21 06:45:54;;;;;;;22.50;11.57;;;;;;;2.15;100.00;99143.73;1785505;80;21052;-74
2022/02/21 06:48:22;;;;;;;21.77;11.80;;;;;;;2.26;100.00;99152.92;1786073;80;21010;-74
2022/02/21 06:50:49;;;;;;;21.40;10.37;;;;;;;2.36;100.00;99152.11;1786555;80;21006;-74
2022/02/21 06:53:16;;;;;;;21.53;11.03;;;;;;;2.50;100.00;99151.69;1754329;80;20999;-74
2022/02/21 06:55:43;;;;;;;23.27;12.20;;;;;;;2.60;100.00;99158.33;1753913;80;21128;-75
2022/02/21 06:58:11;;;;;;;21.73;11.07;;;;;;;2.71;100.00;99174.22;1724819;80;21065;-74
2022/02/21 07:00:39;;;;;;;20.00;11.17;;;;;;;2.79;100.00;99182.34;1725191;80;21064;-74
2022/02/21 07:03:06;;;;;;;22.87;11.53;;;;;;;2.90;100.00;99191.19;1719663;81;21554;-73
2022/02/21 07:05:34;;;;;;;32.67;18.60;;;;;;;3.00;100.00;99201.37;1738218;80;21519;-74
2022/02/21 07:08:01;;;;;;;31.37;16.37;;;;;;;3.07;100.00;99215.83;1720538;80;21050;-74
2022/02/21 07:10:28;;;;;;;26.23;14.23;;;;;;;3.20;100.00;99232.89;1718631;80;21112;-73
2022/02/21 07:12:55;;;;;;;29.90;16.60;;;;;;;3.34;100.00;99235.60;1713819;80;21575;-72
2022/02/21 07:15:23;;;;;;;28.17;14.67;;;;;;;3.42;100.00;99250.44;1720591;80;22182;-74
2022/02/21 07:17:51;;;;;;;22.27;12.07;;;;;;;3.52;100.00;99258.41;1718869;80;21045;-71
2022/02/21 07:20:18;;;;;;;34.87;18.80;;;;;;;3.64;100.00;99257.25;1721671;81;21041;-75
2022/02/21 07:22:47;;;;;;;36.70;20.03;;;;;;;3.75;100.00;99268.26;1749114;81;21592;-76
2022/02/21 07:25:17;;;;;;;39.90;23.70;;;;;;;3.80;100.00;99274.02;1701598;83;21056;-72
2022/02/21 07:27:51;;;;;;;48.93;26.67;;;;;;;3.97;100.00;99280.44;1696908;83;21036;-75
2022/02/21 07:30:23;;;;;;;29.23;15.37;;;;;;;4.09;100.00;99289.95;1669867;84;21059;-79
2022/02/21 07:32:58;;;;;;;28.87;14.63;;;;;;;4.15;100.00;99286.67;1668507;84;21072;-76
2022/02/21 07:35:25;;;;;;;33.63;17.90;;;;;;;4.27;100.00;99285.16;1674006;84;21789;-76
2022/02/21 07:37:53;;;;;;;27.80;15.87;;;;;;;4.38;100.00;99295.14;1663985;84;21091;-76
2022/02/21 07:40:23;;;;;;;22.23;12.20;;;;;;;4.53;100.00;99299.52;1670626;84;20992;-73
2022/02/21 07:43:01;;;;;;;24.33;11.93;;;;;;;4.64;100.00;99294.91;1668044;84;21554;-77
2022/02/21 07:45:30;;;;;;;24.30;12.37;;;;;;;4.63;100.00;99301.28;1587480;89;21134;-75
2022/02/21 07:48:00;;;;;;;27.60;15.10;;;;;;;4.69;100.00;99299.32;1590088;88;21274;-76
2022/02/21 07:50:30;;;;;;;31.23;14.27;;;;;;;4.81;100.00;99295.43;1587378;88;21086;-76
2022/02/21 07:52:58;;;;;;;29.40;14.63;;;;;;;4.99;100.00;99290.58;1590487;88;21118;-75
2022/02/21 07:55:25;;;;;;;26.13;14.27;;;;;;;5.17;100.00;99296.78;1594576;89;21147;-76
2022/02/21 07:57:54;;;;;;;22.90;12.77;;;;;;;5.16;100.00;99297.77;1571222;89;21082;-75
2022/02/21 08:00:21;;;;;;;25.37;12.50;;;;;;;5.24;100.00;99301.00;1590414;89;21058;-75
2022/02/21 08:02:48;;;;;;;24.67;13.70;;;;;;;5.36;100.00;99297.59;1562456;89;21092;-76
2022/02/21 08:05:15;;;;;;;25.70;13.70;;;;;;;5.44;100.00;99304.37;1562451;89;21094;-75
2022/02/21 08:07:44;;;;;;;23.87;12.60;;;;;;;5.60;100.00;99298.28;1591501;88;21519;-75
2022/02/21 08:10:11;;;;;;;24.93;12.80;;;;;;;5.61;100.00;99306.66;1592340;89;21082;-73
2022/02/21 08:12:40;;;;;;;31.23;18.33;;;;;;;5.72;100.00;99303.73;1563000;89;21169;-69
2022/02/21 08:15:09;;;;;;;21.97;10.73;;;;;;;5.93;100.00;99302.48;1587858;88;21081;-70
2022/02/21 08:17:44;;;;;;;22.00;12.70;;;;;;;6.18;100.00;99304.83;1564593;89;21102;-76
2022/02/21 08:20:20;;;;;;;20.97;11.50;;;;;;;6.28;100.00;99316.28;1585112;88;21604;-72
2022/02/21 08:22:48;;;;;;;21.93;10.83;;;;;;;6.45;100.00;99326.61;1599153;86;21099;-68
2022/02/21 08:25:15;;;;;;;20.27;11.80;;;;;;;6.41;100.00;99333.28;1646082;85;21041;-68
2022/02/21 08:27:42;;;;;;;21.40;10.30;;;;;;;6.46;100.00;99326.93;1672647;81;21487;-75
2022/02/21 08:30:18;;;;;;;20.03;10.37;;;;;;;6.54;100.00;99330.17;1736283;80;21018;-72
2022/02/21 08:32:45;;;;;;;21.43;11.33;;;;;;;6.65;100.00;99329.34;1756300;80;21014;-72
2022/02/21 08:35:14;;;;;;;21.60;10.30;;;;;;;6.72;100.00;99324.16;1771086;80;21005;-75
2022/02/21 08:37:41;;;;;;;21.73;10.70;;;;;;;6.80;100.00;99330.92;1788259;80;21009;-73
2022/02/21 08:40:11;;;;;;;21.53;10.77;;;;;;;6.97;100.00;99337.66;1788415;80;20990;-71
2022/02/21 08:42:38;;;;;;;21.03;11.30;;;;;;;7.04;100.00;99339.52;1771884;80;21474;-71
2022/02/21 08:45:06;;;;;;;24.30;12.07;;;;;;;7.26;100.00;99331.84;1738305;80;21002;-69
2022/02/21 08:47:33;;;;;;;28.40;15.77;;;;;;;7.32;100.00;99342.42;1768558;80;21063;-71
2022/02/21 08:50:00;;;;;;;22.20;11.00;;;;;;;7.36;100.00;99343.77;1768550;79;21018;-76
2022/02/21 08:52:27;;;;;;;18.43;9.63;;;;;;;7.52;100.00;99338.89;1758977;80;21088;-74
2022/02/21 08:54:55;;;;;;;20.07;9.60;;;;;;;7.75;100.00;99337.18;1712137;82;21061;-76
2022/02/21 08:57:22;;;;;;;21.20;10.23;;;;;;;7.74;100.00;99350.83;1705481;83;21063;-76
2022/02/21 08:59:50;;;;;;;23.07;12.10;;;;;;;7.74;100.00;99350.31;1668588;84;21140;-73
2022/02/21 09:02:18;;;;;;;21.07;10.93;;;;;;;7.69;100.00;99352.67;1672446;83;21054;-75
2022/02/21 09:04:46;;;;;;;21.67;9.83;;;;;;;7.68;100.00;99356.88;1700551;83;21112;-76
2022/02/21 09:07:13;;;;;;;19.67;9.13;;;;;;;7.83;100.00;99347.63;1750688;80;21042;-77
2022/02/21 09:09:40;;;;;;;20.43;9.57;;;;;;;8.06;100.00;99349.93;1757500;79;21018;-75
2022/02/21 09:12:08;;;;;;;19.87;10.13;;;;;;;8.26;100.00;99347.68;1755553;80;21157;-72
2022/02/21 09:14:35;;;;;;;17.20;8.00;;;;;;;8.40;100.00;99348.82;1762613;80;21045;-74
2022/02/21 09:17:02;;;;;;;16.83;8.50;;;;;;;8.40;100.00;99362.80;1750882;80;21057;-72
2022/02/21 09:19:33;;;;;;;19.87;8.57;;;;;;;8.31;100.00;99364.16;1761778;80;21086;-76
2022/02/21 09:22:00;;;;;;;16.50;7.97;;;;;;;8.33;100.00;99368.04;1755470;80;21013;-75
2022/02/21 09:24:28;;;;;;;19.97;9.00;;;;;;;8.29;100.00;99373.45;1764614;80;21025;-70
2022/02/21 09:26:55;;;;;;;18.27;8.43;;;;;;;8.31;100.00;99359.30;1759297;80;21074;-72
2022/02/21 09:29:24;;;;;;;17.70;8.27;;;;;;;8.27;100.00;99364.19;1763879;80;21029;-76
2022/02/21 09:31:53;;;;;;;18.17;8.53;;;;;;;8.40;100.00;99353.37;1742447;80;21021;-76
2022/02/21 09:34:20;;;;;;;17.93;8.93;;;;;;;8.61;100.00;99356.87;1759242;80;21041;-74
2022/02/21 09:36:47;;;;;;;15.53;7.60;;;;;;;8.82;100.00;99353.54;1764123;80;21022;-77
2022/02/21 09:39:14;;;;;;;18.13;8.60;;;;;;;8.84;100.00;99368.54;1776331;80;21031;-77
2022/02/21 09:41:43;;;;;;;14.97;7.73;;;;;;;8.79;100.00;99369.57;1751147;80;21021;-76
2022/02/21 09:44:10;;;;;;;15.10;7.90;;;;;;;8.83;100.00;99362.80;1756040;80;21042;-76
2022/02/21 09:46:38;;;;;;;16.73;8.30;;;;;;;8.92;100.00;99371.20;1712787;82;21042;-75
2022/02/21 09:49:06;;;;;;;16.95;8.18;;;;;;;8.98;100.00;99365.61;1720696;82;21049;-68
2022/02/21 09:51:34;;;;;;;14.70;6.83;;;;;;;9.09;100.00;99367.89;1677900;84;21105;-67
2022/02/21 09:54:02;;;;;;;13.07;6.73;;;;;;;9.17;100.00;99356.23;1650212;83;21105;-67
2022/02/21 09:56:29;;;;;;;14.17;6.37;;;;;;;9.32;100.00;99369.77;1712565;82;21316;-66
2022/02/21 09:58:58;;;;;;;16.40;7.62;;;;;;;9.34;100.00;99391.18;1665644;83;21102;-68
2022/02/21 10:01:25;;;;;;;17.37;7.03;;;;;;;9.25;100.00;99383.13;1694552;82;21038;-69
2022/02/21 10:06:25;;;;;;;15.30;6.53;;;;;;;9.42;100.00;99383.01;1692016;82;21037;-74
2022/02/21 10:09:09;;;;;;;13.30;5.87;;;;;;;9.50;100.00;99385.66;1693225;83;21045;-73
2022/02/21 10:11:44;;;;;;;14.23;5.80;;;;;;;9.68;100.00;99379.45;1700604;83;21112;-74
2022/02/21 10:14:23;;;;;;;13.13;5.45;;;;;;;9.75;100.00;99401.14;1669813;83;21045;-74
2022/02/21 10:16:58;;;;;;;14.00;5.90;;;;;;;9.79;100.00;99415.13;1708546;82;20995;-74
2022/02/21 10:22:11;;;;;;;12.60;6.37;;;;;;;9.56;100.00;99401.15;1596523;87;21092;-77
2022/02/21 10:24:46;;;;;;;13.43;6.10;;;;;;;9.46;100.00;99399.19;1622136;87;21157;-76
2022/02/21 10:27:22;;;;;;;20.75;8.93;;;;;;;9.55;100.00;99402.67;1625564;86;21595;-75
2022/02/21 10:30:02;;;;;;;19.90;9.83;;;;;;;9.63;100.00;99410.20;1616474;87;21555;-74
2022/02/21 10:32:32;;;;;;;22.42;9.15;;;;;;;9.88;100.00;99401.91;1613488;87;21094;-75
2022/02/21 10:35:21;;;;;;;24.30;11.80;;;;;;;10.01;100.00;99406.68;1625975;87;21117;-76
2022/02/21 10:37:50;;;;;;;18.70;9.98;;;;;;;10.09;100.00;99397.13;1627767;87;21140;-76
2022/02/21 10:40:20;;;;;;;13.00;6.47;;;;;;;10.08;100.00;99398.17;1613693;87;21056;-75
2022/02/21 10:43:09;;;;;;;17.52;7.15;;;;;;;9.94;100.00;99405.73;1582986;89;21087;-75
2022/02/21 10:45:38;;;;;;;16.97;7.33;;;;;;;9.87;100.00;99405.09;1585720;89;21074;-74
2022/02/21 10:48:07;;;;;;;20.23;8.00;;;;;;;9.92;100.00;99412.66;1585548;89;21090;-76
2022/02/21 10:51:00;;;;;;;16.62;7.40;;;;;;;9.96;100.00;99401.81;1580361;89;21093;-71
2022/02/21 10:53:41;;;;;;;17.30;7.28;;;;;;;10.07;100.00;99404.58;1573632;89;21099;-71
2022/02/21 10:56:09;;;;;;;17.17;7.28;;;;;;;10.10;100.00;99405.58;1551103;91;21091;-72
2022/02/21 10:58:36;;;;;;;14.15;7.50;;;;;;;10.15;100.00;99405.86;1611902;88;21581;-75
2022/02/21 11:01:04;;;;;;;14.03;7.08;;;;;;;10.23;100.00;99404.94;1603442;88;21061;-71
2022/02/21 11:03:33;;;;;;;19.25;9.38;;;;;;;10.13;100.00;99403.00;1583968;88;21101;-70
2022/02/21 11:06:04;;;;;;;17.65;9.05;;;;;;;10.09;100.00;99382.27;1585636;89;21197;-76
2022/02/21 11:08:31;;;;;;;17.20;8.23;;;;;;;10.06;100.00;99405.10;1557645;90;21859;-73
2022/02/21 11:11:12;;;;;;;13.83;6.53;;;;;;;10.08;100.00;99399.00;1573091;90;21117;-74
2022/02/21 11:13:39;;;;;;;15.25;7.10;;;;;;;10.24;100.00;99389.06;1559890;91;21696;-74
2022/02/21 11:16:06;;;;;;;16.10;7.47;;;;;;;10.42;100.00;99389.55;1572039;90;21069;-73
2022/02/21 11:18:34;;;;;;;15.08;8.15;;;;;;;10.49;100.00;99392.36;1639947;86;21506;-72
2022/02/21 11:21:03;;;;;;;14.75;7.15;;;;;;;10.56;100.00;99389.76;1677847;83;21078;-76
2022/02/21 11:23:31;;;;;;;15.00;6.40;;;;;;;10.63;100.00;99385.28;1713167;83;20999;-74
2022/02/21 11:26:06;;;;;;;14.75;6.78;;;;;;;10.65;100.00;99398.09;1700621;83;21070;-74
2022/02/21 11:28:38;;;;;;;18.35;7.20;;;;;;;10.57;100.00;99388.23;1695202;83;21125;-73
2022/02/21 11:31:06;;;;;;;16.37;6.70;;;;;;;10.57;100.00;99390.06;1665595;83;21097;-71